sensor_id;sensor_type;location;lat;lon;timestamp;pressure;altitude;pressure_sealevel;temperature;humidity
27685;BME280;46113;50.130;8.526;2023-09-12T00:00:49;98794.22;;;11.88;93.75
27685;BME280;46113;50.130;8.526;2023-09-12T00:03:21;98805.44;;;11.92;92.92
27685;BME280;46113;50.130;8.526;2023-09-12T00:05:57;98793.03;;;11.92;92.76
27685;BME280;46113;50.130;8.526;2023-09-12T00:08:24;98793.03;;;11.92;92.92
27685;BME280;46113;50.130;8.526;2023-09-12T00:11:04;98787.84;;;11.91;92.77
27685;BME280;46113;50.130;8.526;2023-09-12T00:13:32;98785.28;;;11.89;92.75
27685;BME280;46113;50.130;8.526;2023-09-12T00:16:00;98781.91;;;11.87;92.92
27685;BME280;46113;50.130;8.526;2023-09-12T00:18:27;98781.06;;;11.87;92.86
27685;BME280;46113;50.130;8.526;2023-09-12T00:20:55;98779.38;;;11.86;93.13
27685;BME280;46113;50.130;8.526;2023-09-12T00:23:22;98775.13;;;11.83;93.22
27685;BME280;46113;50.130;8.526;2023-09-12T00:25:50;98767.72;;;11.75;94.73
27685;BME280;46113;50.130;8.526;2023-09-12T00:28:21;98758.72;;;11.78;94.15
27685;BME280;46113;50.130;8.526;2023-09-12T00:30:48;98762.34;;;11.77;93.95
27685;BME280;46113;50.130;8.526;2023-09-12T00:33:15;98752.19;;;11.71;94.46
27685;BME280;46113;50.130;8.526;2023-09-12T00:35:43;98753.44;;;11.65;94.94
27685;BME280;46113;50.130;8.526;2023-09-12T00:38:10;98756.81;;;11.67;94.66
27685;BME280;46113;50.130;8.526;2023-09-12T00:40:37;98747.81;;;11.57;95.29
27685;BME280;46113;50.130;8.526;2023-09-12T00:43:04;98748.88;;;11.54;96.14
27685;BME280;46113;50.130;8.526;2023-09-12T00:45:31;98752.91;;;11.60;95.43
27685;BME280;46113;50.130;8.526;2023-09-12T00:48:00;98752.81;;;11.61;95.05
27685;BME280;46113;50.130;8.526;2023-09-12T00:50:29;98754.50;;;11.62;94.79
27685;BME280;46113;50.130;8.526;2023-09-12T00:52:57;98757.25;;;11.61;95.16
27685;BME280;46113;50.130;8.526;2023-09-12T00:55:24;98766.78;;;11.63;95.19
27685;BME280;46113;50.130;8.526;2023-09-12T00:57:52;98755.38;;;11.63;94.63
27685;BME280;46113;50.130;8.526;2023-09-12T01:00:20;98753.78;;;11.60;95.46
27685;BME280;46113;50.130;8.526;2023-09-12T01:02:47;98754.94;;;11.56;95.25
27685;BME280;46113;50.130;8.526;2023-09-12T01:05:16;98750.59;;;11.55;94.90
27685;BME280;46113;50.130;8.526;2023-09-12T01:07:43;98755.78;;;11.57;94.72
27685;BME280;46113;50.130;8.526;2023-09-12T01:10:11;98761.75;;;11.47;95.19
27685;BME280;46113;50.130;8.526;2023-09-12T01:12:38;98759.72;;;11.51;95.01
27685;BME280;46113;50.130;8.526;2023-09-12T01:15:05;98763.44;;;11.48;95.29
27685;BME280;46113;50.130;8.526;2023-09-12T01:17:36;98753.78;;;11.47;95.16
27685;BME280;46113;50.130;8.526;2023-09-12T01:20:04;98762.66;;;11.46;94.88
27685;BME280;46113;50.130;8.526;2023-09-12T01:22:46;98750.38;;;11.45;94.81
27685;BME280;46113;50.130;8.526;2023-09-12T01:27:54;98748.69;;;11.44;95.64
27685;BME280;46113;50.130;8.526;2023-09-12T01:30:22;98744.56;;;11.40;96.09
27685;BME280;46113;50.130;8.526;2023-09-12T01:32:50;98743.50;;;11.43;95.64
27685;BME280;46113;50.130;8.526;2023-09-12T01:35:17;98749.22;;;11.36;95.11
27685;BME280;46113;50.130;8.526;2023-09-12T01:37:45;98747.31;;;11.38;95.26
27685;BME280;46113;50.130;8.526;2023-09-12T01:40:12;98751.97;;;11.35;95.40
27685;BME280;46113;50.130;8.526;2023-09-12T01:42:43;98747.94;;;11.29;94.89
27685;BME280;46113;50.130;8.526;2023-09-12T01:45:16;98743.41;;;11.31;94.96
27685;BME280;46113;50.130;8.526;2023-09-12T01:47:47;98740.66;;;11.33;94.42
27685;BME280;46113;50.130;8.526;2023-09-12T01:50:16;98738.94;;;11.32;94.76
27685;BME280;46113;50.130;8.526;2023-09-12T01:52:44;98739.72;;;11.34;94.51
27685;BME280;46113;50.130;8.526;2023-09-12T01:55:11;98732.72;;;11.33;94.77
27685;BME280;46113;50.130;8.526;2023-09-12T01:57:38;98733.56;;;11.33;94.53
27685;BME280;46113;50.130;8.526;2023-09-12T02:00:07;98731.00;;;11.32;94.50
27685;BME280;46113;50.130;8.526;2023-09-12T02:02:36;98728.16;;;11.35;94.53
27685;BME280;46113;50.130;8.526;2023-09-12T02:07:41;98725.06;;;11.28;95.15
27685;BME280;46113;50.130;8.526;2023-09-12T02:10:10;98725.19;;;11.26;95.52
27685;BME280;46113;50.130;8.526;2023-09-12T02:12:38;98719.25;;;11.23;96.25
27685;BME280;46113;50.130;8.526;2023-09-12T02:15:07;98732.38;;;11.24;96.34
27685;BME280;46113;50.130;8.526;2023-09-12T02:17:34;98719.88;;;11.26;95.74
27685;BME280;46113;50.130;8.526;2023-09-12T02:20:01;98729.31;;;11.18;96.24
27685;BME280;46113;50.130;8.526;2023-09-12T02:22:32;98727.72;;;11.15;97.14
27685;BME280;46113;50.130;8.526;2023-09-12T02:24:59;98732.41;;;11.11;97.40
27685;BME280;46113;50.130;8.526;2023-09-12T02:27:26;98739.06;;;11.17;97.05
27685;BME280;46113;50.130;8.526;2023-09-12T02:29:53;98741.59;;;11.19;96.70
27685;BME280;46113;50.130;8.526;2023-09-12T02:32:20;98737.34;;;11.16;96.60
27685;BME280;46113;50.130;8.526;2023-09-12T02:34:47;98745.81;;;11.21;96.41
27685;BME280;46113;50.130;8.526;2023-09-12T02:37:14;98739.72;;;11.21;95.80
27685;BME280;46113;50.130;8.526;2023-09-12T02:39:42;98740.25;;;11.13;96.14
27685;BME280;46113;50.130;8.526;2023-09-12T02:42:09;98742.03;;;11.12;96.11
27685;BME280;46113;50.130;8.526;2023-09-12T02:44:36;98746.06;;;11.05;96.92
27685;BME280;46113;50.130;8.526;2023-09-12T02:47:04;98743.50;;;11.04;96.39
27685;BME280;46113;50.130;8.526;2023-09-12T02:49:32;98740.75;;;11.05;96.96
27685;BME280;46113;50.130;8.526;2023-09-12T02:51:59;98739.06;;;11.04;97.02
27685;BME280;46113;50.130;8.526;2023-09-12T02:54:27;98731.22;;;11.03;96.45
27685;BME280;46113;50.130;8.526;2023-09-12T02:56:54;98732.28;;;11.00;96.59
27685;BME280;46113;50.130;8.526;2023-09-12T02:59:21;98722.84;;;10.96;96.23
27685;BME280;46113;50.130;8.526;2023-09-12T03:01:48;98723.25;;;10.90;96.56
27685;BME280;46113;50.130;8.526;2023-09-12T03:04:15;98726.81;;;10.88;96.58
27685;BME280;46113;50.130;8.526;2023-09-12T03:06:43;98723.44;;;10.86;96.64
27685;BME280;46113;50.130;8.526;2023-09-12T03:09:11;98716.75;;;10.81;97.05
27685;BME280;46113;50.130;8.526;2023-09-12T03:11:39;98720.97;;;10.70;98.06
27685;BME280;46113;50.130;8.526;2023-09-12T03:14:06;98721.50;;;10.75;97.54
27685;BME280;46113;50.130;8.526;2023-09-12T03:16:33;98728.31;;;10.80;97.03
27685;BME280;46113;50.130;8.526;2023-09-12T03:19:00;98731.81;;;10.80;97.03
27685;BME280;46113;50.130;8.526;2023-09-12T03:21:29;98730.00;;;10.81;96.69
27685;BME280;46113;50.130;8.526;2023-09-12T03:23:56;98732.53;;;10.82;96.51
27685;BME280;46113;50.130;8.526;2023-09-12T03:26:23;98735.09;;;10.84;96.91
27685;BME280;46113;50.130;8.526;2023-09-12T03:28:50;98735.50;;;10.78;97.30
27685;BME280;46113;50.130;8.526;2023-09-12T03:31:18;98732.53;;;10.82;97.01
27685;BME280;46113;50.130;8.526;2023-09-12T03:33:47;98728.94;;;10.83;96.77
27685;BME280;46113;50.130;8.526;2023-09-12T03:36:18;98724.50;;;10.84;96.61
27685;BME280;46113;50.130;8.526;2023-09-12T03:38:46;98717.72;;;10.80;97.06
27685;BME280;46113;50.130;8.526;2023-09-12T03:41:13;98717.81;;;10.78;96.84
27685;BME280;46113;50.130;8.526;2023-09-12T03:43:41;98716.22;;;10.75;97.02
27685;BME280;46113;50.130;8.526;2023-09-12T03:46:10;98704.91;;;10.73;96.89
27685;BME280;46113;50.130;8.526;2023-09-12T03:48:37;98705.88;;;10.72;96.69
27685;BME280;46113;50.130;8.526;2023-09-12T03:51:04;98708.41;;;10.74;96.81
27685;BME280;46113;50.130;8.526;2023-09-12T03:53:32;98712.63;;;10.64;97.78
27685;BME280;46113;50.130;8.526;2023-09-12T03:55:59;98710.28;;;10.59;98.33
27685;BME280;46113;50.130;8.526;2023-09-12T03:58:27;98707.97;;;10.67;97.52
27685;BME280;46113;50.130;8.526;2023-09-12T04:03:52;98699.69;;;10.59;97.35
27685;BME280;46113;50.130;8.526;2023-09-12T04:06:19;98695.38;;;10.58;97.30
27685;BME280;46113;50.130;8.526;2023-09-12T04:08:45;98703.31;;;10.58;97.39
27685;BME280;46113;50.130;8.526;2023-09-12T04:11:12;98702.75;;;10.53;97.53
27685;BME280;46113;50.130;8.526;2023-09-12T04:13:38;98700.13;;;10.53;97.64
27685;BME280;46113;50.130;8.526;2023-09-12T04:16:05;98704.22;;;10.44;97.38
27685;BME280;46113;50.130;8.526;2023-09-12T04:18:32;98700.91;;;10.40;97.68
27685;BME280;46113;50.130;8.526;2023-09-12T04:20:59;98706.09;;;10.42;98.36
27685;BME280;46113;50.130;8.526;2023-09-12T04:23:25;98705.81;;;10.46;97.40
27685;BME280;46113;50.130;8.526;2023-09-12T04:25:52;98712.88;;;10.46;97.46
27685;BME280;46113;50.130;8.526;2023-09-12T04:28:19;98708.34;;;10.48;97.20
27685;BME280;46113;50.130;8.526;2023-09-12T04:30:46;98709.00;;;10.52;96.99
27685;BME280;46113;50.130;8.526;2023-09-12T04:33:13;98700.94;;;10.53;97.18
27685;BME280;46113;50.130;8.526;2023-09-12T04:35:41;98701.06;;;10.52;97.38
27685;BME280;46113;50.130;8.526;2023-09-12T04:38:07;98696.50;;;10.54;97.23
27685;BME280;46113;50.130;8.526;2023-09-12T04:40:34;98700.84;;;10.55;97.50
27685;BME280;46113;50.130;8.526;2023-09-12T04:43:02;98695.91;;;10.63;97.50
27685;BME280;46113;50.130;8.526;2023-09-12T04:45:32;98695.72;;;10.66;97.28
27685;BME280;46113;50.130;8.526;2023-09-12T04:47:59;98696.44;;;10.68;97.57
27685;BME280;46113;50.130;8.526;2023-09-12T04:50:26;98697.41;;;10.67;97.98
27685;BME280;46113;50.130;8.526;2023-09-12T04:52:53;98701.94;;;10.65;98.22
27685;BME280;46113;50.130;8.526;2023-09-12T04:55:19;98708.81;;;10.68;98.34
27685;BME280;46113;50.130;8.526;2023-09-12T04:57:46;98709.06;;;10.78;97.99
27685;BME280;46113;50.130;8.526;2023-09-12T05:00:13;98710.84;;;10.77;98.12
27685;BME280;46113;50.130;8.526;2023-09-12T05:02:40;98707.75;;;10.83;97.40
27685;BME280;46113;50.130;8.526;2023-09-12T05:05:07;98710.13;;;10.88;97.61
27685;BME280;46113;50.130;8.526;2023-09-12T05:07:33;98705.28;;;10.95;97.47
27685;BME280;46113;50.130;8.526;2023-09-12T05:10:00;98707.16;;;10.93;97.62
27685;BME280;46113;50.130;8.526;2023-09-12T05:12:27;98707.31;;;11.04;97.08
27685;BME280;46113;50.130;8.526;2023-09-12T05:14:54;98707.41;;;11.03;97.70
27685;BME280;46113;50.130;8.526;2023-09-12T05:17:21;98713.00;;;11.11;97.42
27685;BME280;46113;50.130;8.526;2023-09-12T05:19:48;98709.53;;;11.23;97.03
27685;BME280;46113;50.130;8.526;2023-09-12T05:22:15;98709.81;;;11.32;97.07
27685;BME280;46113;50.130;8.526;2023-09-12T05:24:42;98718.94;;;11.40;97.03
27685;BME280;46113;50.130;8.526;2023-09-12T05:27:08;98715.66;;;11.50;97.32
27685;BME280;46113;50.130;8.526;2023-09-12T05:29:35;98729.41;;;11.55;96.79
27685;BME280;46113;50.130;8.526;2023-09-12T05:32:02;98732.16;;;11.53;96.79
27685;BME280;46113;50.130;8.526;2023-09-12T05:34:30;98735.41;;;11.70;96.45
27685;BME280;46113;50.130;8.526;2023-09-12T05:36:57;98741.97;;;11.77;95.95
27685;BME280;46113;50.130;8.526;2023-09-12T05:39:23;98745.53;;;11.89;95.26
27685;BME280;46113;50.130;8.526;2023-09-12T05:41:50;98745.44;;;12.04;95.42
27685;BME280;46113;50.130;8.526;2023-09-12T05:44:17;98749.66;;;12.06;94.13
27685;BME280;46113;50.130;8.526;2023-09-12T05:46:46;98744.22;;;12.21;93.71
27685;BME280;46113;50.130;8.526;2023-09-12T05:49:14;98736.53;;;12.29;93.13
27685;BME280;46113;50.130;8.526;2023-09-12T05:51:41;98735.00;;;12.38;93.06
27685;BME280;46113;50.130;8.526;2023-09-12T05:54:10;98742.19;;;12.49;92.85
27685;BME280;46113;50.130;8.526;2023-09-12T05:56:36;98739.06;;;12.55;92.85
27685;BME280;46113;50.130;8.526;2023-09-12T05:59:03;98729.81;;;12.61;92.62
27685;BME280;46113;50.130;8.526;2023-09-12T06:01:30;98734.75;;;12.66;92.50
27685;BME280;46113;50.130;8.526;2023-09-12T06:03:57;98733.00;;;12.53;92.22
27685;BME280;46113;50.130;8.526;2023-09-12T06:06:24;98734.06;;;12.75;91.49
27685;BME280;46113;50.130;8.526;2023-09-12T06:08:51;98728.78;;;12.75;90.14
27685;BME280;46113;50.130;8.526;2023-09-12T06:11:19;98731.75;;;12.70;90.23
27685;BME280;46113;50.130;8.526;2023-09-12T06:13:46;98725.25;;;12.75;90.27
27685;BME280;46113;50.130;8.526;2023-09-12T06:16:13;98723.97;;;12.80;90.45
27685;BME280;46113;50.130;8.526;2023-09-12T06:18:39;98724.56;;;12.84;90.27
27685;BME280;46113;50.130;8.526;2023-09-12T06:21:06;98733.41;;;12.96;90.40
27685;BME280;46113;50.130;8.526;2023-09-12T06:23:36;98733.94;;;13.12;90.62
27685;BME280;46113;50.130;8.526;2023-09-12T06:26:02;98731.56;;;13.21;89.50
27685;BME280;46113;50.130;8.526;2023-09-12T06:28:30;98726.97;;;13.34;89.44
27685;BME280;46113;50.130;8.526;2023-09-12T06:30:58;98737.13;;;13.41;89.16
27685;BME280;46113;50.130;8.526;2023-09-12T06:33:26;98737.84;;;13.43;88.93
27685;BME280;46113;50.130;8.526;2023-09-12T06:35:53;98733.47;;;13.64;88.26
27685;BME280;46113;50.130;8.526;2023-09-12T06:38:22;98727.09;;;13.56;88.41
27685;BME280;46113;50.130;8.526;2023-09-12T06:40:49;98733.97;;;13.70;87.76
27685;BME280;46113;50.130;8.526;2023-09-12T06:43:15;98730.22;;;13.84;87.57
27685;BME280;46113;50.130;8.526;2023-09-12T06:45:42;98722.09;;;13.97;87.81
27685;BME280;46113;50.130;8.526;2023-09-12T06:48:09;98712.31;;;14.09;87.29
27685;BME280;46113;50.130;8.526;2023-09-12T06:50:36;98717.75;;;14.07;86.87
27685;BME280;46113;50.130;8.526;2023-09-12T06:53:05;98727.84;;;14.36;86.65
27685;BME280;46113;50.130;8.526;2023-09-12T06:55:36;98723.44;;;14.47;85.04
27685;BME280;46113;50.130;8.526;2023-09-12T06:58:03;98722.69;;;14.44;83.91
27685;BME280;46113;50.130;8.526;2023-09-12T07:00:30;98730.00;;;14.64;84.07
27685;BME280;46113;50.130;8.526;2023-09-12T07:02:57;98728.84;;;14.78;82.92
27685;BME280;46113;50.130;8.526;2023-09-12T07:05:24;98726.56;;;14.73;81.88
27685;BME280;46113;50.130;8.526;2023-09-12T07:07:52;98718.78;;;14.81;80.72
27685;BME280;46113;50.130;8.526;2023-09-12T07:10:19;98721.53;;;14.70;80.37
27685;BME280;46113;50.130;8.526;2023-09-12T07:12:52;98713.25;;;14.94;79.97
27685;BME280;46113;50.130;8.526;2023-09-12T07:15:19;98712.94;;;14.88;79.99
27685;BME280;46113;50.130;8.526;2023-09-12T07:17:46;98713.75;;;15.00;78.73
27685;BME280;46113;50.130;8.526;2023-09-12T07:20:13;98710.09;;;15.01;79.31
27685;BME280;46113;50.130;8.526;2023-09-12T07:22:41;98712.75;;;15.01;79.94
27685;BME280;46113;50.130;8.526;2023-09-12T07:25:09;98712.38;;;15.05;80.15
27685;BME280;46113;50.130;8.526;2023-09-12T07:27:38;98718.53;;;15.27;80.10
27685;BME280;46113;50.130;8.526;2023-09-12T07:30:06;98728.53;;;15.14;80.38
27685;BME280;46113;50.130;8.526;2023-09-12T07:32:33;98728.53;;;15.35;79.85
27685;BME280;46113;50.130;8.526;2023-09-12T07:35:00;98724.69;;;15.59;79.45
27685;BME280;46113;50.130;8.526;2023-09-12T07:37:27;98728.97;;;15.81;77.69
27685;BME280;46113;50.130;8.526;2023-09-12T07:39:54;98735.22;;;16.01;78.67
27685;BME280;46113;50.130;8.526;2023-09-12T07:42:22;98732.06;;;16.37;77.60
27685;BME280;46113;50.130;8.526;2023-09-12T07:44:49;98734.88;;;16.55;76.51
27685;BME280;46113;50.130;8.526;2023-09-12T07:47:16;98734.59;;;16.78;74.74
27685;BME280;46113;50.130;8.526;2023-09-12T07:49:43;98732.63;;;17.00;73.45
27685;BME280;46113;50.130;8.526;2023-09-12T07:52:09;98732.00;;;17.16;73.41
27685;BME280;46113;50.130;8.526;2023-09-12T07:54:36;98728.84;;;16.83;72.75
27685;BME280;46113;50.130;8.526;2023-09-12T07:57:03;98732.84;;;17.17;70.67
27685;BME280;46113;50.130;8.526;2023-09-12T07:59:30;98739.91;;;16.98;72.15
27685;BME280;46113;50.130;8.526;2023-09-12T08:01:57;98738.16;;;17.37;70.61
27685;BME280;46113;50.130;8.526;2023-09-12T08:04:23;98738.56;;;17.42;70.47
27685;BME280;46113;50.130;8.526;2023-09-12T08:06:50;98739.59;;;17.11;71.54
27685;BME280;46113;50.130;8.526;2023-09-12T08:09:28;98742.63;;;17.36;71.59
27685;BME280;46113;50.130;8.526;2023-09-12T08:12:11;98733.97;;;17.72;69.92
27685;BME280;46113;50.130;8.526;2023-09-12T08:14:37;98734.03;;;17.80;68.92
27685;BME280;46113;50.130;8.526;2023-09-12T08:17:04;98735.00;;;17.89;68.56
27685;BME280;46113;50.130;8.526;2023-09-12T08:19:32;98728.69;;;17.80;69.20
27685;BME280;46113;50.130;8.526;2023-09-12T08:21:59;98726.75;;;18.00;70.05
27685;BME280;46113;50.130;8.526;2023-09-12T08:24:25;98727.81;;;18.08;68.79
27685;BME280;46113;50.130;8.526;2023-09-12T08:26:52;98723.72;;;18.13;67.54
27685;BME280;46113;50.130;8.526;2023-09-12T08:29:19;98718.75;;;18.19;67.49
27685;BME280;46113;50.130;8.526;2023-09-12T08:31:46;98719.81;;;18.26;69.14
27685;BME280;46113;50.130;8.526;2023-09-12T08:34:13;98711.00;;;18.16;68.00
27685;BME280;46113;50.130;8.526;2023-09-12T08:36:40;98714.28;;;18.37;69.41
27685;BME280;46113;50.130;8.526;2023-09-12T08:39:13;98724.28;;;18.35;70.33
27685;BME280;46113;50.130;8.526;2023-09-12T08:41:40;98724.84;;;18.57;67.39
27685;BME280;46113;50.130;8.526;2023-09-12T08:44:07;98728.06;;;18.43;67.52
27685;BME280;46113;50.130;8.526;2023-09-12T08:46:35;98731.94;;;18.48;67.67
27685;BME280;46113;50.130;8.526;2023-09-12T08:49:05;98725.28;;;18.34;67.83
27685;BME280;46113;50.130;8.526;2023-09-12T08:51:32;98724.09;;;18.47;69.02
27685;BME280;46113;50.130;8.526;2023-09-12T08:54:00;98725.19;;;18.80;67.24
27685;BME280;46113;50.130;8.526;2023-09-12T08:56:27;98723.03;;;18.84;67.02
27685;BME280;46113;50.130;8.526;2023-09-12T08:58:54;98737.53;;;19.18;64.20
27685;BME280;46113;50.130;8.526;2023-09-12T09:01:21;98730.56;;;19.25;64.80
27685;BME280;46113;50.130;8.526;2023-09-12T09:03:48;98732.59;;;19.31;65.14
27685;BME280;46113;50.130;8.526;2023-09-12T09:06:16;98735.13;;;19.33;64.35
27685;BME280;46113;50.130;8.526;2023-09-12T09:08:43;98727.50;;;19.55;65.36
27685;BME280;46113;50.130;8.526;2023-09-12T09:11:11;98730.09;;;19.73;63.96
27685;BME280;46113;50.130;8.526;2023-09-12T09:13:37;98727.09;;;19.76;61.68
27685;BME280;46113;50.130;8.526;2023-09-12T09:16:15;98730.31;;;19.80;62.09
27685;BME280;46113;50.130;8.526;2023-09-12T09:19:00;98718.72;;;19.71;62.22
27685;BME280;46113;50.130;8.526;2023-09-12T09:21:29;98718.34;;;20.09;59.85
27685;BME280;46113;50.130;8.526;2023-09-12T09:24:02;98714.34;;;20.38;60.49
27685;BME280;46113;50.130;8.526;2023-09-12T09:26:51;98720.06;;;20.35;59.64
27685;BME280;46113;50.130;8.526;2023-09-12T09:29:20;98719.06;;;20.44;59.71
27685;BME280;46113;50.130;8.526;2023-09-12T09:31:50;98719.78;;;20.71;59.17
27685;BME280;46113;50.130;8.526;2023-09-12T09:34:19;98718.09;;;20.78;58.83
27685;BME280;46113;50.130;8.526;2023-09-12T09:36:51;98706.69;;;20.85;60.17
27685;BME280;46113;50.130;8.526;2023-09-12T09:39:20;98700.78;;;20.98;57.75
27685;BME280;46113;50.130;8.526;2023-09-12T09:41:51;98706.47;;;21.03;57.91
27685;BME280;46113;50.130;8.526;2023-09-12T09:44:21;98709.19;;;21.03;59.71
27685;BME280;46113;50.130;8.526;2023-09-12T09:46:58;98704.63;;;21.12;59.51
27685;BME280;46113;50.130;8.526;2023-09-12T09:49:34;98704.44;;;21.05;60.11
27685;BME280;46113;50.130;8.526;2023-09-12T09:52:04;98712.19;;;20.91;58.65
27685;BME280;46113;50.130;8.526;2023-09-12T09:54:31;98705.47;;;21.04;58.59
27685;BME280;46113;50.130;8.526;2023-09-12T09:56:57;98708.00;;;20.97;59.96
27685;BME280;46113;50.130;8.526;2023-09-12T09:59:25;98705.63;;;21.11;60.69
27685;BME280;46113;50.130;8.526;2023-09-12T10:01:58;98704.09;;;21.33;58.52
27685;BME280;46113;50.130;8.526;2023-09-12T10:04:26;98704.38;;;21.47;58.16
27685;BME280;46113;50.130;8.526;2023-09-12T10:06:55;98702.72;;;21.37;58.85
27685;BME280;46113;50.130;8.526;2023-09-12T10:09:26;98702.13;;;21.67;56.95
27685;BME280;46113;50.130;8.526;2023-09-12T10:11:55;98692.75;;;21.86;56.38
27685;BME280;46113;50.130;8.526;2023-09-12T10:14:22;98697.28;;;21.94;55.91
27685;BME280;46113;50.130;8.526;2023-09-12T10:16:50;98695.63;;;21.85;56.25
27685;BME280;46113;50.130;8.526;2023-09-12T10:19:25;98688.50;;;22.00;56.08
27685;BME280;46113;50.130;8.526;2023-09-12T10:24:25;98683.63;;;22.04;56.81
27685;BME280;46113;50.130;8.526;2023-09-12T10:26:55;98678.72;;;22.07;55.51
27685;BME280;46113;50.130;8.526;2023-09-12T10:29:22;98687.13;;;22.04;55.15
27685;BME280;46113;50.130;8.526;2023-09-12T10:31:49;98673.19;;;21.92;55.86
27685;BME280;46113;50.130;8.526;2023-09-12T10:34:16;98670.63;;;22.07;57.15
27685;BME280;46113;50.130;8.526;2023-09-12T10:36:45;98665.00;;;22.17;57.02
27685;BME280;46113;50.130;8.526;2023-09-12T10:39:12;98662.25;;;22.02;58.06
27685;BME280;46113;50.130;8.526;2023-09-12T10:41:41;98661.97;;;21.89;57.51
27685;BME280;46113;50.130;8.526;2023-09-12T10:44:15;98662.44;;;21.92;55.77
27685;BME280;46113;50.130;8.526;2023-09-12T10:46:44;98657.22;;;21.91;55.67
27685;BME280;46113;50.130;8.526;2023-09-12T10:49:13;98658.31;;;21.81;57.78
27685;BME280;46113;50.130;8.526;2023-09-12T10:51:41;98655.00;;;21.71;57.71
27685;BME280;46113;50.130;8.526;2023-09-12T10:54:08;98652.81;;;21.66;57.22
27685;BME280;46113;50.130;8.526;2023-09-12T10:56:35;98648.44;;;21.74;55.53
27685;BME280;46113;50.130;8.526;2023-09-12T11:01:31;98646.81;;;21.88;59.85
27685;BME280;46113;50.130;8.526;2023-09-12T11:03:58;98643.75;;;21.99;59.45
27685;BME280;46113;50.130;8.526;2023-09-12T11:06:29;98647.78;;;22.03;60.15
27685;BME280;46113;50.130;8.526;2023-09-12T11:11:42;98645.06;;;22.03;59.74
27685;BME280;46113;50.130;8.526;2023-09-12T11:14:10;98644.59;;;22.23;49.56
27685;BME280;46113;50.130;8.526;2023-09-12T11:16:36;98642.63;;;22.55;50.31
27685;BME280;46113;50.130;8.526;2023-09-12T11:21:45;98646.13;;;22.64;52.30
27685;BME280;46113;50.130;8.526;2023-09-12T11:24:13;98645.47;;;22.62;54.27
27685;BME280;46113;50.130;8.526;2023-09-12T11:27:00;98653.31;;;22.48;51.29
27685;BME280;46113;50.130;8.526;2023-09-12T11:29:34;98656.56;;;22.44;53.38
27685;BME280;46113;50.130;8.526;2023-09-12T11:32:02;98638.75;;;22.58;51.18
27685;BME280;46113;50.130;8.526;2023-09-12T11:34:36;98641.63;;;22.56;53.26
27685;BME280;46113;50.130;8.526;2023-09-12T11:37:03;98645.78;;;22.59;55.84
27685;BME280;46113;50.130;8.526;2023-09-12T11:39:33;98647.44;;;22.68;56.29
27685;BME280;46113;50.130;8.526;2023-09-12T11:42:01;98646.09;;;22.87;57.38
27685;BME280;46113;50.130;8.526;2023-09-12T11:44:29;98645.06;;;23.04;55.95
27685;BME280;46113;50.130;8.526;2023-09-12T11:47:01;98639.59;;;23.27;51.84
27685;BME280;46113;50.130;8.526;2023-09-12T11:49:40;98640.66;;;23.48;49.33
27685;BME280;46113;50.130;8.526;2023-09-12T11:52:11;98639.34;;;23.59;51.41
27685;BME280;46113;50.130;8.526;2023-09-12T11:54:43;98650.47;;;23.34;56.27
27685;BME280;46113;50.130;8.526;2023-09-12T11:57:15;98646.28;;;23.31;55.41
27685;BME280;46113;50.130;8.526;2023-09-12T11:59:43;98644.22;;;23.18;52.18
27685;BME280;46113;50.130;8.526;2023-09-12T12:02:15;98640.88;;;23.31;51.12
27685;BME280;46113;50.130;8.526;2023-09-12T12:04:42;98639.41;;;23.44;50.03
27685;BME280;46113;50.130;8.526;2023-09-12T12:07:10;98649.72;;;23.40;51.84
27685;BME280;46113;50.130;8.526;2023-09-12T12:09:37;98644.03;;;23.35;54.62
27685;BME280;46113;50.130;8.526;2023-09-12T12:12:14;98638.47;;;23.36;55.42
27685;BME280;46113;50.130;8.526;2023-09-12T12:14:41;98634.53;;;23.54;51.69
27685;BME280;46113;50.130;8.526;2023-09-12T12:17:09;98633.06;;;23.88;50.55
27685;BME280;46113;50.130;8.526;2023-09-12T12:19:37;98641.25;;;23.95;50.78
27685;BME280;46113;50.130;8.526;2023-09-12T12:22:05;98640.47;;;24.01;51.37
27685;BME280;46113;50.130;8.526;2023-09-12T12:24:45;98637.66;;;24.10;49.52
27685;BME280;46113;50.130;8.526;2023-09-12T12:27:14;98633.03;;;24.03;49.56
27685;BME280;46113;50.130;8.526;2023-09-12T12:29:41;98634.63;;;23.98;50.40
27685;BME280;46113;50.130;8.526;2023-09-12T12:32:10;98628.97;;;24.14;50.44
27685;BME280;46113;50.130;8.526;2023-09-12T12:34:37;98625.69;;;24.19;50.74
27685;BME280;46113;50.130;8.526;2023-09-12T12:37:28;98623.84;;;24.19;50.28
27685;BME280;46113;50.130;8.526;2023-09-12T12:40:00;98632.81;;;24.27;51.99
27685;BME280;46113;50.130;8.526;2023-09-12T12:45:26;98614.53;;;24.29;51.63
27685;BME280;46113;50.130;8.526;2023-09-12T12:51:23;98625.25;;;24.15;56.84
27685;BME280;46113;50.130;8.526;2023-09-12T12:53:54;98629.81;;;24.15;56.54
27685;BME280;46113;50.130;8.526;2023-09-12T12:56:26;98626.38;;;24.28;56.50
27685;BME280;46113;50.130;8.526;2023-09-12T12:58:57;98616.22;;;24.30;57.30
27685;BME280;46113;50.130;8.526;2023-09-12T13:01:29;98624.84;;;24.40;55.31
27685;BME280;46113;50.130;8.526;2023-09-12T13:04:01;98615.72;;;24.70;50.73
27685;BME280;46113;50.130;8.526;2023-09-12T13:06:29;98609.13;;;24.79;48.72
27685;BME280;46113;50.130;8.526;2023-09-12T13:08:58;98609.63;;;24.61;49.29
27685;BME280;46113;50.130;8.526;2023-09-12T13:11:25;98611.13;;;24.64;48.45
27685;BME280;46113;50.130;8.526;2023-09-12T13:13:53;98610.22;;;24.35;50.37
27685;BME280;46113;50.130;8.526;2023-09-12T13:16:20;98607.16;;;24.38;52.96
27685;BME280;46113;50.130;8.526;2023-09-12T13:18:47;98607.50;;;24.06;54.21
27685;BME280;46113;50.130;8.526;2023-09-12T13:21:13;98612.13;;;24.12;56.44
27685;BME280;46113;50.130;8.526;2023-09-12T13:23:40;98611.47;;;24.10;58.45
27685;BME280;46113;50.130;8.526;2023-09-12T13:26:08;98604.78;;;24.06;59.65
27685;BME280;46113;50.130;8.526;2023-09-12T13:28:36;98608.91;;;24.02;60.25
27685;BME280;46113;50.130;8.526;2023-09-12T13:31:03;98598.34;;;23.85;60.65